sensor_id;sensor_type;location;lat;lon;timestamp;temperature;humidity
28244;DHT22;15510;52.512;13.300;2023-07-13T00:02:18;20.80;99.90
28244;DHT22;15510;52.512;13.300;2023-07-13T00:04:44;20.80;99.90
28244;DHT22;15510;52.512;13.300;2023-07-13T00:07:13;20.80;99.90
28244;DHT22;15510;52.512;13.300;2023-07-13T00:09:42;20.70;99.90
28244;DHT22;15510;52.512;13.300;2023-07-13T00:12:32;20.70;99.90
28244;DHT22;15510;52.512;13.300;2023-07-13T00:14:59;20.70;99.90
28244;DHT22;15510;52.512;13.300;2023-07-13T00:17:26;20.70;99.90
28244;DHT22;15510;52.512;13.300;2023-07-13T00:19:52;20.70;99.90
28244;DHT22;15510;52.512;13.300;2023-07-13T00:22:21;20.60;99.90
28244;DHT22;15510;52.512;13.300;2023-07-13T00:24:47;20.60;99.90
28244;DHT22;15510;52.512;13.300;2023-07-13T00:27:14;20.50;99.90
28244;DHT22;15510;52.512;13.300;2023-07-13T00:29:40;20.60;99.90
28244;DHT22;15510;52.512;13.300;2023-07-13T00:32:07;20.50;99.90
28244;DHT22;15510;52.512;13.300;2023-07-13T00:34:35;20.50;99.90
28244;DHT22;15510;52.512;13.300;2023-07-13T00:37:05;20.50;99.90
28244;DHT22;15510;52.512;13.300;2023-07-13T00:39:37;20.50;99.90
28244;DHT22;15510;52.512;13.300;2023-07-13T00:42:03;20.50;99.90
28244;DHT22;15510;52.512;13.300;2023-07-13T00:44:30;20.40;99.90
28244;DHT22;15510;52.512;13.300;2023-07-13T00:46:55;20.40;99.90
28244;DHT22;15510;52.512;13.300;2023-07-13T00:49:25;20.30;99.90
28244;DHT22;15510;52.512;13.300;2023-07-13T00:51:58;20.20;99.90
28244;DHT22;15510;52.512;13.300;2023-07-13T00:54:36;20.30;99.90
28244;DHT22;15510;52.512;13.300;2023-07-13T00:57:05;20.20;99.90
28244;DHT22;15510;52.512;13.300;2023-07-13T00:59:34;20.20;99.90
28244;DHT22;15510;52.512;13.300;2023-07-13T01:02:02;20.20;99.90
28244;DHT22;15510;52.512;13.300;2023-07-13T01:04:29;20.10;99.90
28244;DHT22;15510;52.512;13.300;2023-07-13T01:06:55;20.10;99.90
28244;DHT22;15510;52.512;13.300;2023-07-13T01:09:22;20.10;99.90
28244;DHT22;15510;52.512;13.300;2023-07-13T01:11:48;20.10;99.90
28244;DHT22;15510;52.512;13.300;2023-07-13T01:14:15;20.30;99.90
28244;DHT22;15510;52.512;13.300;2023-07-13T01:16:48;20.20;99.90
28244;DHT22;15510;52.512;13.300;2023-07-13T01:19:36;20.20;99.90
28244;DHT22;15510;52.512;13.300;2023-07-13T01:22:17;20.20;99.90
28244;DHT22;15510;52.512;13.300;2023-07-13T01:24:50;20.10;99.90
28244;DHT22;15510;52.512;13.300;2023-07-13T01:27:20;20.10;99.90
28244;DHT22;15510;52.512;13.300;2023-07-13T01:29:46;20.00;99.90
28244;DHT22;15510;52.512;13.300;2023-07-13T01:32:18;20.00;99.90
28244;DHT22;15510;52.512;13.300;2023-07-13T01:34:48;19.90;99.90
28244;DHT22;15510;52.512;13.300;2023-07-13T01:37:16;19.90;99.90
28244;DHT22;15510;52.512;13.300;2023-07-13T01:39:42;19.80;99.90
28244;DHT22;15510;52.512;13.300;2023-07-13T01:42:08;19.80;99.90
28244;DHT22;15510;52.512;13.300;2023-07-13T01:44:34;19.80;99.90
28244;DHT22;15510;52.512;13.300;2023-07-13T01:47:00;19.90;99.90
28244;DHT22;15510;52.512;13.300;2023-07-13T01:49:33;19.90;99.90
28244;DHT22;15510;52.512;13.300;2023-07-13T01:51:59;19.80;99.90
28244;DHT22;15510;52.512;13.300;2023-07-13T01:54:25;19.70;99.90
28244;DHT22;15510;52.512;13.300;2023-07-13T01:56:51;19.70;99.90
28244;DHT22;15510;52.512;13.300;2023-07-13T01:59:17;19.60;99.90
28244;DHT22;15510;52.512;13.300;2023-07-13T02:01:42;19.50;99.90
28244;DHT22;15510;52.512;13.300;2023-07-13T02:04:08;19.40;99.90
28244;DHT22;15510;52.512;13.300;2023-07-13T02:06:34;19.40;99.90
28244;DHT22;15510;52.512;13.300;2023-07-13T02:09:00;19.40;99.90
28244;DHT22;15510;52.512;13.300;2023-07-13T02:11:26;19.30;99.90
28244;DHT22;15510;52.512;13.300;2023-07-13T02:14:01;19.20;99.90
28244;DHT22;15510;52.512;13.300;2023-07-13T02:16:28;19.20;99.90
28244;DHT22;15510;52.512;13.300;2023-07-13T02:18:54;19.10;99.90
28244;DHT22;15510;52.512;13.300;2023-07-13T02:21:22;19.10;99.90
28244;DHT22;15510;52.512;13.300;2023-07-13T02:23:51;19.10;99.90
28244;DHT22;15510;52.512;13.300;2023-07-13T02:26:18;19.10;99.90
28244;DHT22;15510;52.512;13.300;2023-07-13T02:28:44;19.10;99.90
28244;DHT22;15510;52.512;13.300;2023-07-13T02:31:13;19.10;99.90
28244;DHT22;15510;52.512;13.300;2023-07-13T02:33:40;19.10;99.90
28244;DHT22;15510;52.512;13.300;2023-07-13T02:36:06;19.10;99.90
28244;DHT22;15510;52.512;13.300;2023-07-13T02:38:33;19.20;99.90
28244;DHT22;15510;52.512;13.300;2023-07-13T02:41:02;19.20;99.90
28244;DHT22;15510;52.512;13.300;2023-07-13T02:43:30;19.20;99.90
28244;DHT22;15510;52.512;13.300;2023-07-13T02:45:56;19.30;99.90
28244;DHT22;15510;52.512;13.300;2023-07-13T02:48:26;19.30;99.90
28244;DHT22;15510;52.512;13.300;2023-07-13T02:50:54;19.30;99.90
28244;DHT22;15510;52.512;13.300;2023-07-13T02:53:20;19.20;99.90
28244;DHT22;15510;52.512;13.300;2023-07-13T02:55:45;19.10;99.90
28244;DHT22;15510;52.512;13.300;2023-07-13T02:58:13;19.20;99.90
28244;DHT22;15510;52.512;13.300;2023-07-13T03:00:46;19.20;99.90
28244;DHT22;15510;52.512;13.300;2023-07-13T03:03:13;19.20;99.90
28244;DHT22;15510;52.512;13.300;2023-07-13T03:05:42;19.20;99.90
28244;DHT22;15510;52.512;13.300;2023-07-13T03:08:09;19.30;99.90
28244;DHT22;15510;52.512;13.300;2023-07-13T03:10:35;19.30;99.90
28244;DHT22;15510;52.512;13.300;2023-07-13T03:13:01;19.30;99.90
28244;DHT22;15510;52.512;13.300;2023-07-13T03:15:30;19.40;99.90
28244;DHT22;15510;52.512;13.300;2023-07-13T03:17:57;19.40;99.90
28244;DHT22;15510;52.512;13.300;2023-07-13T03:20:23;19.40;99.90
28244;DHT22;15510;52.512;13.300;2023-07-13T03:22:49;19.40;99.90
28244;DHT22;15510;52.512;13.300;2023-07-13T03:25:17;19.40;99.90
28244;DHT22;15510;52.512;13.300;2023-07-13T03:27:42;19.40;99.90
28244;DHT22;15510;52.512;13.300;2023-07-13T03:30:09;19.20;99.90
28244;DHT22;15510;52.512;13.300;2023-07-13T03:32:35;19.30;99.90
28244;DHT22;15510;52.512;13.300;2023-07-13T03:35:01;19.20;99.90
28244;DHT22;15510;52.512;13.300;2023-07-13T03:37:29;19.20;99.90
28244;DHT22;15510;52.512;13.300;2023-07-13T03:39:55;19.20;99.90
28244;DHT22;15510;52.512;13.300;2023-07-13T03:42:21;19.20;99.90
28244;DHT22;15510;52.512;13.300;2023-07-13T03:44:46;19.20;99.90
28244;DHT22;15510;52.512;13.300;2023-07-13T03:47:18;19.30;99.90
28244;DHT22;15510;52.512;13.300;2023-07-13T03:49:47;19.30;99.90
28244;DHT22;15510;52.512;13.300;2023-07-13T03:52:15;19.20;99.90
28244;DHT22;15510;52.512;13.300;2023-07-13T03:54:41;19.20;99.90
28244;DHT22;15510;52.512;13.300;2023-07-13T03:57:08;19.20;99.90
28244;DHT22;15510;52.512;13.300;2023-07-13T03:59:35;19.20;99.90
28244;DHT22;15510;52.512;13.300;2023-07-13T04:02:02;19.10;99.90
28244;DHT22;15510;52.512;13.300;2023-07-13T04:04:32;19.00;99.90
28244;DHT22;15510;52.512;13.300;2023-07-13T04:06:58;19.00;99.90
28244;DHT22;15510;52.512;13.300;2023-07-13T04:09:25;19.10;99.90
28244;DHT22;15510;52.512;13.300;2023-07-13T04:11:51;19.10;99.90
28244;DHT22;15510;52.512;13.300;2023-07-13T04:14:17;19.00;99.90
28244;DHT22;15510;52.512;13.300;2023-07-13T04:16:43;19.10;99.90
28244;DHT22;15510;52.512;13.300;2023-07-13T04:19:10;19.10;99.90
28244;DHT22;15510;52.512;13.300;2023-07-13T04:21:36;19.10;99.90
28244;DHT22;15510;52.512;13.300;2023-07-13T04:24:03;19.10;99.90
28244;DHT22;15510;52.512;13.300;2023-07-13T04:26:29;19.10;99.90
28244;DHT22;15510;52.512;13.300;2023-07-13T04:28:56;19.10;99.90
28244;DHT22;15510;52.512;13.300;2023-07-13T04:31:22;19.20;99.90
28244;DHT22;15510;52.512;13.300;2023-07-13T04:33:48;19.30;99.90
28244;DHT22;15510;52.512;13.300;2023-07-13T04:36:16;19.40;99.90
28244;DHT22;15510;52.512;13.300;2023-07-13T04:38:42;19.40;99.90
28244;DHT22;15510;52.512;13.300;2023-07-13T04:41:09;19.50;99.90
28244;DHT22;15510;52.512;13.300;2023-07-13T04:43:35;19.50;99.90
28244;DHT22;15510;52.512;13.300;2023-07-13T04:46:09;19.50;99.90
28244;DHT22;15510;52.512;13.300;2023-07-13T04:48:36;19.60;99.90
28244;DHT22;15510;52.512;13.300;2023-07-13T04:51:03;19.60;99.90
28244;DHT22;15510;52.512;13.300;2023-07-13T04:53:29;19.70;99.90
28244;DHT22;15510;52.512;13.300;2023-07-13T04:55:55;19.70;99.90
28244;DHT22;15510;52.512;13.300;2023-07-13T04:58:21;19.80;99.90
28244;DHT22;15510;52.512;13.300;2023-07-13T05:00:49;19.80;99.90
28244;DHT22;15510;52.512;13.300;2023-07-13T05:03:15;19.80;99.90
28244;DHT22;15510;52.512;13.300;2023-07-13T05:05:41;19.80;99.90
28244;DHT22;15510;52.512;13.300;2023-07-13T05:08:10;19.80;99.90
28244;DHT22;15510;52.512;13.300;2023-07-13T05:10:36;19.80;99.90
28244;DHT22;15510;52.512;13.300;2023-07-13T05:13:01;19.80;99.90
28244;DHT22;15510;52.512;13.300;2023-07-13T05:15:28;20.00;99.90
28244;DHT22;15510;52.512;13.300;2023-07-13T05:17:54;19.90;99.90
28244;DHT22;15510;52.512;13.300;2023-07-13T05:20:20;19.80;99.90
28244;DHT22;15510;52.512;13.300;2023-07-13T05:22:46;19.80;99.90
28244;DHT22;15510;52.512;13.300;2023-07-13T05:25:16;19.80;99.90
28244;DHT22;15510;52.512;13.300;2023-07-13T05:27:41;19.90;99.90
28244;DHT22;15510;52.512;13.300;2023-07-13T05:30:07;19.90;99.90
28244;DHT22;15510;52.512;13.300;2023-07-13T05:32:38;19.90;99.90
28244;DHT22;15510;52.512;13.300;2023-07-13T05:35:04;20.00;99.90
28244;DHT22;15510;52.512;13.300;2023-07-13T05:37:30;20.00;99.90
28244;DHT22;15510;52.512;13.300;2023-07-13T05:39:56;20.10;99.90
28244;DHT22;15510;52.512;13.300;2023-07-13T05:42:22;20.10;99.90
28244;DHT22;15510;52.512;13.300;2023-07-13T05:44:48;20.10;99.90
28244;DHT22;15510;52.512;13.300;2023-07-13T05:47:13;20.20;99.90
28244;DHT22;15510;52.512;13.300;2023-07-13T05:49:40;20.20;99.90
28244;DHT22;15510;52.512;13.300;2023-07-13T05:52:06;20.30;99.90
28244;DHT22;15510;52.512;13.300;2023-07-13T05:54:34;20.40;99.90
28244;DHT22;15510;52.512;13.300;2023-07-13T05:57:00;20.40;99.90
28244;DHT22;15510;52.512;13.300;2023-07-13T05:59:26;20.50;99.90
28244;DHT22;15510;52.512;13.300;2023-07-13T06:01:51;20.60;99.90
28244;DHT22;15510;52.512;13.300;2023-07-13T06:04:20;20.70;99.90
28244;DHT22;15510;52.512;13.300;2023-07-13T06:06:46;20.80;99.90
28244;DHT22;15510;52.512;13.300;2023-07-13T06:09:12;21.00;99.90
28244;DHT22;15510;52.512;13.300;2023-07-13T06:11:37;21.10;99.90
28244;DHT22;15510;52.512;13.300;2023-07-13T06:14:03;21.20;99.90
28244;DHT22;15510;52.512;13.300;2023-07-13T06:16:32;21.30;99.90
28244;DHT22;15510;52.512;13.300;2023-07-13T06:18:58;21.30;99.90
28244;DHT22;15510;52.512;13.300;2023-07-13T06:21:24;21.30;99.90
28244;DHT22;15510;52.512;13.300;2023-07-13T06:23:51;21.40;99.90
28244;DHT22;15510;52.512;13.300;2023-07-13T06:26:22;21.40;99.90
28244;DHT22;15510;52.512;13.300;2023-07-13T06:28:56;21.40;99.90
28244;DHT22;15510;52.512;13.300;2023-07-13T06:31:22;21.40;99.90
28244;DHT22;15510;52.512;13.300;2023-07-13T06:33:48;21.40;99.90
28244;DHT22;15510;52.512;13.300;2023-07-13T06:36:18;21.40;99.90
28244;DHT22;15510;52.512;13.300;2023-07-13T06:38:44;21.40;99.90
28244;DHT22;15510;52.512;13.300;2023-07-13T06:41:09;21.40;99.90
28244;DHT22;15510;52.512;13.300;2023-07-13T06:43:35;21.50;99.90
28244;DHT22;15510;52.512;13.300;2023-07-13T06:46:01;21.50;99.90
28244;DHT22;15510;52.512;13.300;2023-07-13T06:48:27;21.60;99.90
28244;DHT22;15510;52.512;13.300;2023-07-13T06:50:53;21.60;99.90
28244;DHT22;15510;52.512;13.300;2023-07-13T06:53:22;21.60;99.90
28244;DHT22;15510;52.512;13.300;2023-07-13T06:55:48;21.60;99.90
28244;DHT22;15510;52.512;13.300;2023-07-13T06:58:16;21.60;99.90
28244;DHT22;15510;52.512;13.300;2023-07-13T07:00:42;21.70;99.90
28244;DHT22;15510;52.512;13.300;2023-07-13T07:03:08;21.80;99.90
28244;DHT22;15510;52.512;13.300;2023-07-13T07:05:34;21.90;99.90
28244;DHT22;15510;52.512;13.300;2023-07-13T07:08:00;22.00;99.90
28244;DHT22;15510;52.512;13.300;2023-07-13T07:10:28;22.00;99.90
28244;DHT22;15510;52.512;13.300;2023-07-13T07:12:54;22.10;99.90
28244;DHT22;15510;52.512;13.300;2023-07-13T07:15:20;22.20;99.90
28244;DHT22;15510;52.512;13.300;2023-07-13T07:17:45;22.30;99.90
28244;DHT22;15510;52.512;13.300;2023-07-13T07:20:17;22.30;99.90
28244;DHT22;15510;52.512;13.300;2023-07-13T07:22:43;22.40;99.90
28244;DHT22;15510;52.512;13.300;2023-07-13T07:25:09;22.50;99.90
28244;DHT22;15510;52.512;13.300;2023-07-13T07:27:35;22.40;99.90
28244;DHT22;15510;52.512;13.300;2023-07-13T07:30:00;22.30;99.90
28244;DHT22;15510;52.512;13.300;2023-07-13T07:32:28;22.30;99.90
28244;DHT22;15510;52.512;13.300;2023-07-13T07:34:54;22.50;99.90
28244;DHT22;15510;52.512;13.300;2023-07-13T07:37:20;22.70;99.90
28244;DHT22;15510;52.512;13.300;2023-07-13T07:39:46;22.90;99.90
28244;DHT22;15510;52.512;13.300;2023-07-13T07:42:12;23.00;99.90
28244;DHT22;15510;52.512;13.300;2023-07-13T07:44:39;23.30;99.90
28244;DHT22;15510;52.512;13.300;2023-07-13T07:47:05;23.40;99.90
28244;DHT22;15510;52.512;13.300;2023-07-13T07:49:31;23.60;99.90
28244;DHT22;15510;52.512;13.300;2023-07-13T07:51:57;23.80;99.90
28244;DHT22;15510;52.512;13.300;2023-07-13T07:54:23;23.80;99.90
28244;DHT22;15510;52.512;13.300;2023-07-13T07:56:49;23.90;99.90
28244;DHT22;15510;52.512;13.300;2023-07-13T07:59:14;24.00;99.90
28244;DHT22;15510;52.512;13.300;2023-07-13T08:01:40;24.10;99.90
28244;DHT22;15510;52.512;13.300;2023-07-13T08:04:06;24.10;99.90
28244;DHT22;15510;52.512;13.300;2023-07-13T08:06:33;24.20;99.90
28244;DHT22;15510;52.512;13.300;2023-07-13T08:09:01;24.20;99.90
28244;DHT22;15510;52.512;13.300;2023-07-13T08:11:29;24.30;99.90
28244;DHT22;15510;52.512;13.300;2023-07-13T08:14:00;24.50;99.90
28244;DHT22;15510;52.512;13.300;2023-07-13T08:16:26;24.50;99.90
28244;DHT22;15510;52.512;13.300;2023-07-13T08:18:54;24.50;99.90
28244;DHT22;15510;52.512;13.300;2023-07-13T08:21:20;24.60;99.90
28244;DHT22;15510;52.512;13.300;2023-07-13T08:23:47;24.70;99.90
28244;DHT22;15510;52.512;13.300;2023-07-13T08:26:13;24.70;99.90
28244;DHT22;15510;52.512;13.300;2023-07-13T08:28:38;24.70;99.90
28244;DHT22;15510;52.512;13.300;2023-07-13T08:31:05;24.70;99.90
28244;DHT22;15510;52.512;13.300;2023-07-13T08:33:34;24.90;99.90
28244;DHT22;15510;52.512;13.300;2023-07-13T08:36:06;24.90;99.90
28244;DHT22;15510;52.512;13.300;2023-07-13T08:38:32;25.00;99.90
28244;DHT22;15510;52.512;13.300;2023-07-13T08:40:58;25.10;99.90
28244;DHT22;15510;52.512;13.300;2023-07-13T08:43:36;25.10;99.90
28244;DHT22;15510;52.512;13.300;2023-07-13T08:46:10;25.10;99.90
28244;DHT22;15510;52.512;13.300;2023-07-13T08:49:15;25.10;99.90
28244;DHT22;15510;52.512;13.300;2023-07-13T08:51:45;25.10;99.90
28244;DHT22;15510;52.512;13.300;2023-07-13T08:54:26;24.90;99.90
28244;DHT22;15510;52.512;13.300;2023-07-13T08:56:56;24.70;99.90
28244;DHT22;15510;52.512;13.300;2023-07-13T08:59:27;24.60;99.90
28244;DHT22;15510;52.512;13.300;2023-07-13T09:04:46;24.40;99.90
28244;DHT22;15510;52.512;13.300;2023-07-13T09:07:21;24.50;99.90
28244;DHT22;15510;52.512;13.300;2023-07-13T09:10:14;24.30;99.90
28244;DHT22;15510;52.512;13.300;2023-07-13T09:15:29;24.10;99.90
28244;DHT22;15510;52.512;13.300;2023-07-13T09:18:01;24.10;99.90
28244;DHT22;15510;52.512;13.300;2023-07-13T09:20:52;24.10;99.90
28244;DHT22;15510;52.512;13.300;2023-07-13T09:23:28;24.10;99.90
28244;DHT22;15510;52.512;13.300;2023-07-13T09:26:24;24.10;99.90
28244;DHT22;15510;52.512;13.300;2023-07-13T09:28:59;24.10;99.90
28244;DHT22;15510;52.512;13.300;2023-07-13T09:31:42;24.10;99.90
28244;DHT22;15510;52.512;13.300;2023-07-13T09:34:13;24.10;99.40
28244;DHT22;15510;52.512;13.300;2023-07-13T09:36:39;24.00;98.50
28244;DHT22;15510;52.512;13.300;2023-07-13T09:39:14;24.10;99.00
28244;DHT22;15510;52.512;13.300;2023-07-13T09:42:20;24.20;99.00
28244;DHT22;15510;52.512;13.300;2023-07-13T09:44:54;24.10;99.30
28244;DHT22;15510;52.512;13.300;2023-07-13T09:47:27;24.10;99.50
28244;DHT22;15510;52.512;13.300;2023-07-13T09:50:02;24.30;99.40
28244;DHT22;15510;52.512;13.300;2023-07-13T09:52:49;24.40;98.80
28244;DHT22;15510;52.512;13.300;2023-07-13T09:55:38;24.30;99.00
28244;DHT22;15510;52.512;13.300;2023-07-13T09:58:25;24.20;99.00
28244;DHT22;15510;52.512;13.300;2023-07-13T10:00:59;24.20;98.60
28244;DHT22;15510;52.512;13.300;2023-07-13T10:03:30;24.40;99.20
28244;DHT22;15510;52.512;13.300;2023-07-13T10:06:15;24.50;99.40
28244;DHT22;15510;52.512;13.300;2023-07-13T10:08:41;24.60;98.60
28244;DHT22;15510;52.512;13.300;2023-07-13T10:11:19;24.70;98.30
28244;DHT22;15510;52.512;13.300;2023-07-13T10:13:52;25.00;98.30
28244;DHT22;15510;52.512;13.300;2023-07-13T10:16:24;25.20;96.70
28244;DHT22;15510;52.512;13.300;2023-07-13T10:19:15;25.50;96.10
28244;DHT22;15510;52.512;13.300;2023-07-13T10:24:24;25.60;95.30
28244;DHT22;15510;52.512;13.300;2023-07-13T10:27:16;25.70;95.50
28244;DHT22;15510;52.512;13.300;2023-07-13T10:29:53;25.90;95.40
28244;DHT22;15510;52.512;13.300;2023-07-13T10:32:23;26.10;94.90
28244;DHT22;15510;52.512;13.300;2023-07-13T10:34:50;26.20;95.20
28244;DHT22;15510;52.512;13.300;2023-07-13T10:37:29;26.20;94.90
28244;DHT22;15510;52.512;13.300;2023-07-13T10:40:01;26.30;93.80
28244;DHT22;15510;52.512;13.300;2023-07-13T10:42:37;26.50;93.30
28244;DHT22;15510;52.512;13.300;2023-07-13T10:45:20;26.70;92.40
28244;DHT22;15510;52.512;13.300;2023-07-13T10:47:48;27.00;92.20
28244;DHT22;15510;52.512;13.300;2023-07-13T10:50:30;26.90;92.20
28244;DHT22;15510;52.512;13.300;2023-07-13T10:53:33;27.00;91.40
28244;DHT22;15510;52.512;13.300;2023-07-13T10:56:27;27.10;91.20
28244;DHT22;15510;52.512;13.300;2023-07-13T10:59:14;27.30;90.90
28244;DHT22;15510;52.512;13.300;2023-07-13T11:01:58;27.40;89.50
28244;DHT22;15510;52.512;13.300;2023-07-13T11:04:44;27.10;90.10
28244;DHT22;15510;52.512;13.300;2023-07-13T11:07:31;26.80;90.00
28244;DHT22;15510;52.512;13.300;2023-07-13T11:10:46;26.90;87.60
28244;DHT22;15510;52.512;13.300;2023-07-13T11:16:37;28.00;86.40
28244;DHT22;15510;52.512;13.300;2023-07-13T11:21:35;28.80;81.30
28244;DHT22;15510;52.512;13.300;2023-07-13T11:31:53;30.30;74.50
28244;DHT22;15510;52.512;13.300;2023-07-13T11:34:33;30.90;70.80
28244;DHT22;15510;52.512;13.300;2023-07-13T11:37:01;30.40;69.80
28244;DHT22;15510;52.512;13.300;2023-07-13T11:39:41;30.80;68.70
28244;DHT22;15510;52.512;13.300;2023-07-13T11:42:18;31.30;64.10
28244;DHT22;15510;52.512;13.300;2023-07-13T11:44:52;32.30;61.60
28244;DHT22;15510;52.512;13.300;2023-07-13T11:47:22;32.80;60.20
28244;DHT22;15510;52.512;13.300;2023-07-13T11:49:55;32.70;58.10
28244;DHT22;15510;52.512;13.300;2023-07-13T11:52:33;32.50;57.50
28244;DHT22;15510;52.512;13.300;2023-07-13T11:55:04;31.80;58.00
28244;DHT22;15510;52.512;13.300;2023-07-13T11:57:52;31.40;57.90
28244;DHT22;15510;52.512;13.300;2023-07-13T12:00:23;31.70;57.50
28244;DHT22;15510;52.512;13.300;2023-07-13T12:02:56;31.60;57.50
28244;DHT22;15510;52.512;13.300;2023-07-13T12:05:26;31.00;58.20
28244;DHT22;15510;52.512;13.300;2023-07-13T12:07:53;31.40;58.60
28244;DHT22;15510;52.512;13.300;2023-07-13T12:12:52;33.30;56.00
28244;DHT22;15510;52.512;13.300;2023-07-13T12:15:22;34.00;54.40
28244;DHT22;15510;52.512;13.300;2023-07-13T12:17:49;34.60;53.00
28244;DHT22;15510;52.512;13.300;2023-07-13T12:20:25;35.00;51.50
28244;DHT22;15510;52.512;13.300;2023-07-13T12:22:52;35.00;49.30
28244;DHT22;15510;52.512;13.300;2023-07-13T12:25:30;35.10;49.10
28244;DHT22;15510;52.512;13.300;2023-07-13T12:27:56;34.90;48.20
28244;DHT22;15510;52.512;13.300;2023-07-13T12:30:33;35.40;47.60
28244;DHT22;15510;52.512;13.300;2023-07-13T12:33:23;35.90;45.70
28244;DHT22;15510;52.512;13.300;2023-07-13T12:35:53;36.20;44.20
28244;DHT22;15510;52.512;13.300;2023-07-13T12:38:19;35.70;44.60
28244;DHT22;15510;52.512;13.300;2023-07-13T12:40:51;36.20;44.10
28244;DHT22;15510;52.512;13.300;2023-07-13T12:43:20;36.60;42.70
28244;DHT22;15510;52.512;13.300;2023-07-13T12:46:20;37.10;42.10
28244;DHT22;15510;52.512;13.300;2023-07-13T12:48:56;37.10;40.60
28244;DHT22;15510;52.512;13.300;2023-07-13T12:51:25;36.30;41.20
28244;DHT22;15510;52.512;13.300;2023-07-13T12:53:57;36.20;41.00
28244;DHT22;15510;52.512;13.300;2023-07-13T12:57:00;35.70;41.70
28244;DHT22;15510;52.512;13.300;2023-07-13T12:59:35;35.10;42.10
28244;DHT22;15510;52.512;13.300;2023-07-13T13:02:02;34.30;42.70
28244;DHT22;15510;52.512;13.300;2023-07-13T13:04:42;33.70;43.60
28244;DHT22;15510;52.512;13.300;2023-07-13T13:07:17;33.50;44.10
28244;DHT22;15510;52.512;13.300;2023-07-13T13:09:51;34.10;43.60
28244;DHT22;15510;52.512;13.300;2023-07-13T13:12:18;34.40;42.80
28244;DHT22;15510;52.512;13.300;2023-07-13T13:17:39;35.70;42.10
28244;DHT22;15510;52.512;13.300;2023-07-13T13:20:28;37.00;40.60
28244;DHT22;15510;52.512;13.300;2023-07-13T13:22:54;37.20;39.20
28244;DHT22;15510;52.512;13.300;2023-07-13T13:25:20;37.50;38.10
28244;DHT22;15510;52.512;13.300;2023-07-13T13:27:47;37.50;38.10
28244;DHT22;15510;52.512;13.300;2023-07-13T13:30:18;37.50;38.10
28244;DHT22;15510;52.512;13.300;2023-07-13T13:32:48;37.00;38.50
28244;DHT22;15510;52.512;13.300;2023-07-13T13:35:19;36.40;39.30
28244;DHT22;15510;52.512;13.300;2023-07-13T13:37:48;35.20;40.30
28244;DHT22;15510;52.512;13.300;2023-07-13T13:40:20;35.50;39.90
28244;DHT22;15510;52.512;13.300;2023-07-13T13:42:50;35.90;39.60
28244;DHT22;15510;52.512;13.300;2023-07-13T13:45:26;35.00;39.70
28244;DHT22;15510;52.512;13.300;2023-07-13T13:47:52;34.10;41.10
28244;DHT22;15510;52.512;13.300;2023-07-13T13:50:21;34.80;40.90
28244;DHT22;15510;52.512;13.300;2023-07-13T13:52:49;35.60;39.80
28244;DHT22;15510;52.512;13.300;2023-07-13T13:55:21;36.30;38.70
28244;DHT22;15510;52.512;13.300;2023-07-13T13:57:56;37.20;38.30
28244;DHT22;15510;52.512;13.300;2023-07-13T14:00:22;38.00;36.50
28244;DHT22;15510;52.512;13.300;2023-07-13T14:02:50;37.70;36.80
28244;DHT22;15510;52.512;13.300;2023-07-13T14:05:25;37.70;36.70
28244;DHT22;15510;52.512;13.300;2023-07-13T14:07:54;37.80;36.40
28244;DHT22;15510;52.512;13.300;2023-07-13T14:10:25;37.90;37.00
28244;DHT22;15510;52.512;13.300;2023-07-13T14:13:30;38.00;36.70
28244;DHT22;15510;52.512;13.300;2023-07-13T14:16:01;37.60;37.30
28244;DHT22;15510;52.512;13.300;2023-07-13T14:18:27;36.20;38.20
28244;DHT22;15510;52.512;13.300;2023-07-13T14:20:53;34.70;39.60
28244;DHT22;15510;52.512;13.300;2023-07-13T14:23:19;34.50;40.30
28244;DHT22;15510;52.512;13.300;2023-07-13T14:25:46;35.10;40.10
28244;DHT22;15510;52.512;13.300;2023-07-13T14:28:22;35.30;40.00
28244;DHT22;15510;52.512;13.300;2023-07-13T14:30:50;36.50;38.30
28244;DHT22;15510;52.512;13.300;2023-07-13T14:33:16;37.30;37.50
28244;DHT22;15510;52.512;13.300;2023-07-13T14:35:42;37.80;36.70
28244;DHT22;15510;52.512;13.300;2023-07-13T14:38:22;37.60;36.30
28244;DHT22;15510;52.512;13.300;2023-07-13T14:40:48;37.20;36.20
28244;DHT22;15510;52.512;13.300;2023-07-13T14:43:17;37.60;36.20
28244;DHT22;15510;52.512;13.300;2023-07-13T14:45:47;37.10;36.80
28244;DHT22;15510;52.512;13.300;2023-07-13T14:48:21;36.70;37.10
28244;DHT22;15510;52.512;13.300;2023-07-13T14:50:57;36.80;37.00
28244;DHT22;15510;52.512;13.300;2023-07-13T14:53:25;37.40;36.00
28244;DHT22;15510;52.512;13.300;2023-07-13T14:55:53;37.70;35.80
28244;DHT22;15510;52.512;13.300;2023-07-13T14:58:19;36.80;35.30
28244;DHT22;15510;52.512;13.300;2023-07-13T15:00:48;35.60;36.70
28244;DHT22;15510;52.512;13.300;2023-07-13T15:03:22;34.10;37.40
28244;DHT22;15510;52.512;13.300;2023-07-13T15:05:51;32.80;39.30
28244;DHT22;15510;52.512;13.300;2023-07-13T15:08:27;31.80;39.60
28244;DHT22;15510;52.512;13.300;2023-07-13T15:10:53;30.90;41.90
28244;DHT22;15510;52.512;13.300;2023-07-13T15:13:28;30.20;41.70
28244;DHT22;15510;52.512;13.300;2023-07-13T15:15:54;29.60;42.70
28244;DHT22;15510;52.512;13.300;2023-07-13T15:18:26;29.30;44.10
28244;DHT22;15510;52.512;13.300;2023-07-13T15:20:53;28.60;45.40
28244;DHT22;15510;52.512;13.300;2023-07-13T15:23:24;28.30;46.10
28244;DHT22;15510;52.512;13.300;2023-07-13T15:25:51;28.00;46.60
28244;DHT22;15510;52.512;13.300;2023-07-13T15:28:22;27.80;47.20
28244;DHT22;15510;52.512;13.300;2023-07-13T15:30:52;27.60;47.70
28244;DHT22;15510;52.512;13.300;2023-07-13T15:33:22;27.50;48.10
28244;DHT22;15510;52.512;13.300;2023-07-13T15:35:57;27.40;48.50
28244;DHT22;15510;52.512;13.300;2023-07-13T15:38:28;27.30;48.90
28244;DHT22;15510;52.512;13.300;2023-07-13T15:40:58;27.20;50.00
28244;DHT22;15510;52.512;13.300;2023-07-13T15:43:39;27.10;50.00
28244;DHT22;15510;52.512;13.300;2023-07-13T15:46:05;27.10;49.70
28244;DHT22;15510;52.512;13.300;2023-07-13T15:48:34;27.10;50.30
28244;DHT22;15510;52.512;13.300;2023-07-13T15:51:05;27.00;50.40
28244;DHT22;15510;52.512;13.300;2023-07-13T15:53:39;27.00;50.30
28244;DHT22;15510;52.512;13.300;2023-07-13T15:56:27;27.00;50.60
28244;DHT22;15510;52.512;13.300;2023-07-13T15:58:57;26.90;50.60
28244;DHT22;15510;52.512;13.300;2023-07-13T16:01:31;26.70;51.00
28244;DHT22;15510;52.512;13.300;2023-07-13T16:03:58;26.70;51.90